Flight Track Log - Related Links

Times and Time Zones

All times are in EDT time to prevent confusion due to time zone crossing. See the ASQ4538 flight status page for this flight to view local times or setup timezone preferences in your user account.

Time Position Orientation Groundspeed Altitude Reporting Facility
EDT Latitude Longitude Course Direction KTS MPH feet Rate Location/Type
Sun 08:49:57 PM 42.8842 -85.4656 107° East 193 222 3,100  Level Chicago Center
Sun 08:50:59 PM 42.8650 -85.3847 108° East 225 259 5,200 2,613 Climbing Chicago Center
Sun 08:52:00 PM 42.7592 -85.0460 105° East  Level FlightAware Approximate
Sun 08:52:01 PM 42.8383 -85.2744 108° East 252 290 8,500  Level Chicago Center
Sun 08:53:00 PM 42.7330 -84.9261 107° East  Level FlightAware Approximate
Sun 08:53:03 PM 42.8153 -85.1806 108° East 260 299 10,900  Level Chicago Center
Sun 08:54:00 PM 42.7054 -84.8068 107° East  Level FlightAware Approximate
Sun 08:54:05 PM 42.7892 -85.0769 109° East 285 328 12,500  Level Chicago Center
Sun 08:55:00 PM 42.6766 -84.6780 107° East  Level FlightAware Approximate
Sun 08:55:07 PM 42.7611 -84.9647 109° East 309 356 14,500  Level Chicago Center
Sun 08:56:09 PM 42.7333 -84.8517 108° East 314 361 16,400 1,597 Climbing Chicago Center
Sun 08:57:11 PM 42.7042 -84.7367 109° East 323 372 17,800 1,694 Climbing Chicago Center
Sun 08:58:13 PM 42.6689 -84.5950 109° East 328 377 19,900 1,500 Climbing Chicago Center
Sun 08:59:15 PM 42.6367 -84.4708 109° East 346 398 20,900 968 Climbing Chicago Center
Sun 09:00:17 PM 42.6039 -84.3378 108° East 368 423 21,900 1,026 Climbing Chicago Center
Sun 09:01:12 PM 42.5694 -84.2175 111° Southeast 367 422 22,900 1,096 Climbing Cleveland Center
Sun 09:02:12 PM 42.5342 -84.0803 109° East 378 435 24,000 1,050 Climbing Cleveland Center
Sun 09:03:12 PM 42.4947 -83.9317 110° East 378 435 25,000 500 Climbing Cleveland Center
Sun 09:04:12 PM 42.4572 -83.7861 109° East 390 449 25,000 150 Level Cleveland Center
Sun 09:05:12 PM 42.4156 -83.6319 110° East 409 471 25,300 750 Climbing Cleveland Center
Sun 09:06:12 PM 42.3836 -83.4956 108° East 419 482 26,500 1,250 Climbing Cleveland Center
Sun 09:07:12 PM 42.3581 -83.3483 103° East 414 476 27,800 1,450 Climbing Cleveland Center
Sun 09:08:12 PM 42.3244 -83.1894 106° East 399 459 29,400 1,550 Climbing Cleveland Center
Sun 09:09:12 PM 42.2942 -83.0506 106° East 399 459 30,900 1,550 Climbing Cleveland Center
Sun 09:10:12 PM 42.2656 -82.9119 106° East 393 452 32,500 1,550 Climbing Cleveland Center
Sun 09:11:12 PM 42.2433 -82.7708 102° East 388 447 34,000 1,250 Climbing Cleveland Center
Sun 09:12:12 PM 42.2294 -82.6275 97° East 381 438 35,000 500 Climbing Cleveland Center
Sun 09:13:12 PM 42.2175 -82.4756 96° East 388 447 35,000  Level Cleveland Center
Sun 09:14:12 PM 42.2033 -82.3156 97° East 412 474 35,000  Level Cleveland Center
Sun 09:15:12 PM 42.1911 -82.1469 96° East 432 497 35,000  Level Cleveland Center
Sun 09:16:12 PM 42.1806 -82.0036 96° East 443 510 35,000  Level Cleveland Center
Sun 09:17:12 PM 42.1656 -81.8408 97° East 443 510 35,000  Level Cleveland Center
Sun 09:18:12 PM 42.1506 -81.6781 97° East 443 510 35,000  Level Cleveland Center
Sun 09:19:12 PM 42.1356 -81.5128 97° East 448 516 35,000  Level Cleveland Center
Sun 09:20:12 PM 42.1219 -81.3475 96° East 441 507 35,000  Level Cleveland Center
Sun 09:21:12 PM 42.1022 -81.1708 98° East 446 513 35,000  Level Cleveland Center
Sun 09:22:12 PM 42.0864 -81.0028 97° East 446 513 35,000  Level Cleveland Center
Sun 09:23:12 PM 42.0700 -80.8433 98° East 441 507 35,000  Level Cleveland Center
Sun 09:24:12 PM 42.0558 -80.6811 97° East 441 507 35,000  Level Cleveland Center
Sun 09:25:12 PM 42.0392 -80.5217 98° East 435 501 35,000  Level Cleveland Center
Sun 09:26:12 PM 42.0244 -80.3625 97° East 430 495 35,000  Level Cleveland Center
Sun 09:27:12 PM 41.9844 -80.2061 109° East 430 495 35,000  Level Cleveland Center
Sun 09:28:12 PM 41.9400 -80.0694 114° Southeast 440 506 35,000  Level Cleveland Center
Sun 09:29:12 PM 41.8892 -79.9222 115° Southeast 440 506 35,000  Level Cleveland Center
Sun 09:30:12 PM 41.8342 -79.7694 116° Southeast 446 513 35,000  Level Cleveland Center
Sun 09:31:12 PM 41.7786 -79.6031 114° Southeast 446 513 35,000  Level Cleveland Center
Sun 09:32:12 PM 41.7253 -79.4536 116° Southeast 446 513 35,000  Level Cleveland Center
Sun 09:33:12 PM 41.6942 -79.2900 104° East 446 513 35,000  Level Cleveland Center
Sun 09:34:12 PM 41.6758 -79.1403 99° East 446 513 35,000  Level Cleveland Center
Sun 09:35:12 PM 41.6525 -78.9603 100° East 446 513 35,000  Level Cleveland Center
Sun 09:36:12 PM 41.6272 -78.7942 101° East 446 513 35,000  Level Cleveland Center
Sun 09:37:12 PM 41.6078 -78.6308 99° East 446 513 35,000  Level Cleveland Center
Sun 09:38:12 PM 41.5842 -78.4733 101° East 446 513 35,000  Level Cleveland Center
Sun 09:39:19 PM 41.5617 -78.3042 100° East 438 504 35,000  Level New York Center
Sun 09:40:17 PM 41.5364 -78.1406 102° East 429 494 35,000  Level New York Center
Sun 09:41:19 PM 41.5153 -77.9775 100° East 439 505 35,000  Level New York Center
Sun 09:42:17 PM 41.4897 -77.8111 102° East 439 505 35,000  Level New York Center
Sun 09:43:17 PM 41.4658 -77.6481 101° East 444 511 35,000 -250 Level New York Center
Sun 09:44:17 PM 41.4483 -77.5189 100° East 444 511 34,500 -1,250 Descending New York Center
Sun 09:45:17 PM 41.4208 -77.3392 101° East 444 511 32,500 -1,918 Descending New York Center
Sun 09:46:19 PM 41.4000 -77.1903 101° East 444 511 30,600 -1,587 Descending New York Center
Sun 09:47:18 PM 41.3706 -76.9994 102° East 444 511 29,300 -1,500 Descending New York Center
Sun 09:48:19 PM 41.3456 -76.8369 102° East 444 511 27,600 -1,800 Descending New York Center
Sun 09:49:18 PM 41.3097 -76.6789 107° East 444 511 25,700 -2,017 Descending New York Center
Sun 09:50:18 PM 41.2697 -76.5208 109° East 444 511 23,600 -2,033 Descending New York Center
Sun 09:51:19 PM 41.2289 -76.3739 110° East 444 511 21,600 -1,966 Descending New York Center
Sun 09:52:17 PM 41.1914 -76.2358 110° East 422 486 19,700 -1,866 Descending New York Center
Sun 09:53:18 PM 41.1561 -76.1006 109° East 396 456 17,900 -1,525 Descending New York Center
Sun 09:54:19 PM 41.1186 -75.9600 109° East 396 456 16,600 -1,339 Descending New York Center
Sun 09:55:19 PM 41.0825 -75.8278 110° East 396 456 15,200 -1,475 Descending New York Center
Sun 09:56:17 PM 41.0517 -75.7208 111° Southeast 365 420 13,700 -1,150 Descending New York Center
Sun 09:57:19 PM 41.0211 -75.6058 109° East 312 359 12,900 -500 Descending New York Center
Sun 09:58:17 PM 40.9681 -75.5253 131° Southeast 293 337 12,700 -661 Descending New York Center
Sun 09:59:17 PM 40.9342 -75.4350 116° Southeast 278 320 11,600 -1,033 Descending New York Center
Sun 10:00:19 PM 40.9153 -75.3319 104° East 278 320 10,600 -927 Descending New York Center
Sun 10:01:20 PM 40.9003 -75.2322 101° East 278 320 9,700 -966 Descending New York Center
Sun 10:02:17 PM 40.8867 -75.1461 102° East 278 320 8,700 -966 Descending New York Center
Sun 10:03:18 PM 40.8739 -75.0439 99° East 278 320 7,800 -950 Descending New York Center
Sun 10:04:17 PM 40.8650 -74.9392 96° East 273 314 6,800 -885 Descending New York Center
Sun 10:05:20 PM 40.8578 -74.8508 96° East 273 314 6,000 -393 Descending New York Center
Sun 10:06:19 PM 40.8758 -74.7531 76° East 251 289 6,000 -101 Level New York Center
Sun 10:07:19 PM 40.9011 -74.6750 67° East 251 289 5,800 -504 Descending New York Center
Sun 10:08:18 PM 40.9314 -74.5806 67° East 258 297 5,000 -407 Descending New York Center
Sun 10:09:17 PM 40.9569 -74.5022 67° East 253 291 5,000 -101 Level New York Center
Sun 10:10:17 PM 40.9911 -74.4053 65° Northeast 253 291 4,800 -485 Descending New York Center
Sun 10:10:56 PM 41.0167 -74.3500 58° Northeast 258 297 4,200 -606 Descending New York TRACON
Sun 10:11:56 PM 41.0000 -74.2667 105° East 237 273 3,800 -600 Descending New York TRACON
Sun 10:12:56 PM 40.9667 -74.2000 123° Southeast 241 277 3,000 -400 Descending New York TRACON
Sun 10:13:56 PM 40.9333 -74.1167 118° Southeast 223 257 3,000  Level New York TRACON
Sun 10:14:56 PM 40.9000 -74.0833 143° Southeast 181 208 3,000  Level New York TRACON
Sun 10:15:56 PM 40.8500 -74.0667 166° South 185 213 3,000 -300 Level New York TRACON
Sun 10:16:56 PM 40.8000 -74.1000 207° Southwest 190 219 2,400 -800 Descending New York TRACON
Sun 10:17:56 PM 40.7500 -74.1167 194° South 171 197 1,400 -947 Descending New York TRACON
Sun 10:18:50 PM 40.7167 -74.1500 217° Southwest 130 150 600 -889 Descending New York TRACON

Login

Don't have an account? Register now (free) for customized features, flight alerts, and more!